Land O' Lakes, FL (34637)

11:38 PM EST on February 10, 2016 (GMT -0500)
Pine Glen | | Change Station
CLOSE
Current Station
Personal Weather Station
Location: Land O Lakes, FL
Elevation: 79 ft
Nearby Weather Stations
Active Advisory: Frost Advisory

Elev 79 ft 28.23 °N, 82.47 °W | Updated 2 seconds ago

Clear
Clear
39.3 °F
Feels Like 39 °F
N
0.0
Wind Variable Wind from SSE
Gusts 5.0 mph

Today
High -- | Low -- °F
--% Chance of Precip.
Yesterday
High -- | Low -- °F
Precip. -- in
Pressure 30.29 in
Visibility 10.0 miles
Clouds Clear
Windchill 39 °F
Dew Point 37 °F
Humidity 90%
Rainfall 0.00 in
Snow Depth Not available.
7:12 AM 6:16 PM
Waxing Crescent, 9% visible
METAR KBKV 110353Z AUTO 15003KT 10SM CLR 01/M01 A3029 RMK AO2 SLP255 T00061006
Pressure 30.29 in
Visibility 10.0 miles
Clouds Clear
Windchill 39 °F
Dew Point 37 °F
Humidity 90%
Rainfall 0.00 in
Snow Depth Not available.
7:12 AM 6:16 PM
Waxing Crescent, 9% visible
METAR KBKV 110353Z AUTO 15003KT 10SM CLR 01/M01 A3029 RMK AO2 SLP255 T00061006

10-Day Weather Forecast

Almanac

Astronomy

Feb. 10, 2016 Rise Set
Actual Time
Civil Twilight
Nautical Twilight
Astronomical Twilight
Moon
Length of Visible Light
Length of Day
Tomorrow will be .
, % of the Moon is Illuminated

Today's Extremes

State Highs State Lows

Community

WunderPhotos

Upload Photos

1,892,014 photos uploaded!

WunderBlog® & News

Nearby

Air Quality

  Air Quality AQ Index Pollutant
Not available.

Snow Depth

Station Depth Elevation

Earthquake Activity

City Distance Mag. Time & Date
Minimum magnitude displayed is 2.5.

Coastal Water Temperatures

Place Temperature

Stations

Nearby Weather Stations

Station Location Temp. Windchill Dew Point Humidity Wind Precip. Elev Updated Type
                   

Watches & Warnings

Frost Advisory
Issued: 9:49 PM EST Feb. 10, 2016 – National Weather Service

... Frost advisory remains in effect from 3 am to 9 am EST
Thursday...

* temperature... 33 to 36.

* Impacts... sensitive plants may be killed.

Precautionary/preparedness actions...

A frost advisory means that frost is possible. Sensitive outdoor
plants may be killed if left uncovered. Consider brining your
pets inside.